createdAt,value
2023-10-13T00:00:17.845Z,0.00
2023-10-13T00:01:17.993Z,0.00
2023-10-13T00:02:17.937Z,0.00
2023-10-13T00:03:17.891Z,0.00
2023-10-13T00:04:17.982Z,0.00
2023-10-13T00:05:17.860Z,0.00
2023-10-13T00:06:17.801Z,0.00
2023-10-13T00:07:17.810Z,0.00
2023-10-13T00:08:17.788Z,0.00
2023-10-13T00:09:17.782Z,0.00
2023-10-13T00:10:17.849Z,0.00
2023-10-13T00:11:17.790Z,0.00
2023-10-13T00:12:17.755Z,0.00
2023-10-13T00:13:17.744Z,0.00
2023-10-13T00:14:17.729Z,0.00
2023-10-13T00:15:17.768Z,0.00
2023-10-13T00:16:17.795Z,0.00
2023-10-13T00:17:17.738Z,0.00
2023-10-13T00:18:17.659Z,0.00
2023-10-13T00:19:17.747Z,0.00
2023-10-13T00:20:17.679Z,0.00
2023-10-13T00:21:17.639Z,0.00
2023-10-13T00:22:17.766Z,0.00
2023-10-13T00:23:17.632Z,0.00
2023-10-13T00:24:17.769Z,0.00
2023-10-13T00:25:17.635Z,0.00
2023-10-13T00:26:17.606Z,0.00
2023-10-13T00:27:17.603Z,0.00
2023-10-13T00:28:17.633Z,0.00
2023-10-13T00:29:17.637Z,0.00
2023-10-13T00:30:17.574Z,0.00
2023-10-13T00:31:17.624Z,0.00
2023-10-13T00:32:17.549Z,0.00
2023-10-13T00:33:17.528Z,0.00
2023-10-13T00:34:17.531Z,0.00
2023-10-13T00:35:17.482Z,0.00
2023-10-13T00:36:17.516Z,0.00
2023-10-13T00:37:17.552Z,0.00
2023-10-13T00:38:17.475Z,0.00
2023-10-13T00:39:17.507Z,0.00
2023-10-13T00:40:17.553Z,0.00
2023-10-13T00:41:17.420Z,0.00
2023-10-13T00:42:17.452Z,0.00
2023-10-13T00:43:17.458Z,0.00
2023-10-13T00:44:17.395Z,0.00
2023-10-13T00:45:17.454Z,0.00
2023-10-13T00:46:17.454Z,0.00
2023-10-13T00:47:17.391Z,0.00
2023-10-13T00:48:17.394Z,0.00
2023-10-13T00:49:17.410Z,0.00
2023-10-13T00:50:17.394Z,0.00
2023-10-13T00:51:17.337Z,0.00
2023-10-13T00:52:17.337Z,0.00
2023-10-13T00:53:17.336Z,0.00
2023-10-13T00:54:17.320Z,0.00
2023-10-13T00:55:17.363Z,0.00
2023-10-13T00:56:17.305Z,0.00
2023-10-13T00:57:17.323Z,0.00
2023-10-13T00:58:17.269Z,0.00
2023-10-13T00:59:17.267Z,0.00
2023-10-13T01:00:17.237Z,0.00
2023-10-13T01:01:17.266Z,0.00
2023-10-13T01:02:17.334Z,0.00
2023-10-13T01:03:17.240Z,0.00
2023-10-13T01:04:17.285Z,0.00
2023-10-13T01:05:17.301Z,0.00
2023-10-13T01:06:17.231Z,0.00
2023-10-13T01:07:17.272Z,0.00
2023-10-13T01:08:17.164Z,0.00
2023-10-13T01:09:17.177Z,0.00
2023-10-13T01:10:17.175Z,0.00
2023-10-13T01:11:17.137Z,0.00
2023-10-13T01:12:17.205Z,0.00
2023-10-13T01:13:17.174Z,0.00
2023-10-13T01:14:17.099Z,0.00
2023-10-13T01:15:17.121Z,0.00
2023-10-13T01:16:17.225Z,0.00
2023-10-13T01:17:17.133Z,0.00
2023-10-13T01:18:17.091Z,0.00
2023-10-13T01:19:17.091Z,0.00
2023-10-13T01:20:17.064Z,0.00
2023-10-13T01:21:17.032Z,0.00
2023-10-13T01:22:17.071Z,0.00
2023-10-13T01:23:17.033Z,0.00
2023-10-13T01:24:17.005Z,0.00
2023-10-13T01:25:17.043Z,0.00
2023-10-13T01:26:17.018Z,0.00
2023-10-13T01:27:17.008Z,0.00
2023-10-13T01:28:17.080Z,0.00
2023-10-13T01:29:16.966Z,0.00
2023-10-13T01:30:17.003Z,0.00
2023-10-13T01:31:16.987Z,0.00
2023-10-13T01:32:17.065Z,0.00
2023-10-13T01:33:17.013Z,0.00
2023-10-13T01:34:16.948Z,0.00
2023-10-13T01:35:16.906Z,0.00
2023-10-13T01:36:16.914Z,0.00
2023-10-13T01:37:16.921Z,0.00
2023-10-13T01:38:16.882Z,0.00
2023-10-13T01:39:16.872Z,0.00
2023-10-13T01:40:16.870Z,0.00
2023-10-13T01:41:16.814Z,0.00
2023-10-13T01:42:16.870Z,0.00
2023-10-13T01:43:16.866Z,0.00
2023-10-13T01:44:16.802Z,0.00
2023-10-13T01:45:16.776Z,0.00
2023-10-13T01:46:16.825Z,0.00
2023-10-13T01:47:16.755Z,0.00
2023-10-13T01:48:16.788Z,0.00
2023-10-13T01:49:16.785Z,0.00
2023-10-13T01:50:16.747Z,0.00
2023-10-13T01:51:16.724Z,0.00
2023-10-13T01:52:16.934Z,0.00
2023-10-13T01:53:16.681Z,0.00
2023-10-13T01:54:16.790Z,0.00
2023-10-13T01:55:16.729Z,0.00
2023-10-13T01:56:16.698Z,0.00
2023-10-13T01:57:16.678Z,0.00
2023-10-13T01:58:16.952Z,0.00
2023-10-13T01:59:16.727Z,0.00
2023-10-13T02:00:16.642Z,0.00
2023-10-13T02:01:16.723Z,0.00
2023-10-13T02:02:16.699Z,0.00
2023-10-13T02:03:16.786Z,0.00
2023-10-13T02:04:16.604Z,0.00
2023-10-13T02:05:16.646Z,0.00
2023-10-13T02:06:16.566Z,0.00
2023-10-13T02:07:16.674Z,0.00
2023-10-13T02:08:16.603Z,0.00
2023-10-13T02:09:16.518Z,0.00
2023-10-13T02:10:16.536Z,0.00
2023-10-13T02:11:16.515Z,0.00
2023-10-13T02:12:16.515Z,0.00
2023-10-13T02:13:16.545Z,0.00
2023-10-13T02:14:16.462Z,0.00
2023-10-13T02:15:16.451Z,0.00
2023-10-13T02:16:16.551Z,0.00
2023-10-13T02:17:16.529Z,0.00
2023-10-13T02:18:16.480Z,0.00
2023-10-13T02:19:16.429Z,0.00
2023-10-13T02:20:16.484Z,0.00
2023-10-13T02:21:16.410Z,0.00
2023-10-13T02:22:16.416Z,0.00
2023-10-13T02:23:16.394Z,0.00
2023-10-13T02:24:16.364Z,0.00
2023-10-13T02:25:16.431Z,0.00
2023-10-13T02:26:16.361Z,0.00
2023-10-13T02:27:16.367Z,0.00
2023-10-13T02:28:16.358Z,0.00
2023-10-13T02:29:16.350Z,0.00
2023-10-13T02:30:16.323Z,0.00
2023-10-13T02:31:16.456Z,0.00
2023-10-13T02:32:16.345Z,0.00
2023-10-13T02:33:16.327Z,0.00
2023-10-13T02:34:16.277Z,0.00
2023-10-13T02:35:16.270Z,0.00
2023-10-13T02:36:16.254Z,0.00
2023-10-13T02:37:16.321Z,0.00
2023-10-13T02:38:16.210Z,0.00
2023-10-13T02:39:16.255Z,0.00
2023-10-13T02:40:16.230Z,0.00
2023-10-13T02:41:16.219Z,0.00
2023-10-13T02:42:16.184Z,0.00
2023-10-13T02:43:16.799Z,0.00
2023-10-13T02:44:16.169Z,0.00
2023-10-13T02:45:16.139Z,0.00
2023-10-13T02:46:17.008Z,0.00
2023-10-13T02:47:16.226Z,0.00
2023-10-13T02:48:16.191Z,0.00
2023-10-13T02:49:16.111Z,0.00
2023-10-13T02:50:16.152Z,0.00
2023-10-13T02:51:16.100Z,0.00
2023-10-13T02:52:16.292Z,0.00
2023-10-13T02:53:16.081Z,0.00
2023-10-13T02:54:16.049Z,0.00
2023-10-13T02:55:16.165Z,0.00
2023-10-13T02:56:16.042Z,0.00
2023-10-13T02:57:16.053Z,0.00
2023-10-13T02:58:16.072Z,0.00
2023-10-13T02:59:15.998Z,0.00
2023-10-13T03:00:15.999Z,0.00
2023-10-13T03:01:16.020Z,0.00
2023-10-13T03:02:16.000Z,0.00
2023-10-13T03:03:16.020Z,0.00
2023-10-13T03:04:15.970Z,0.00
2023-10-13T03:05:16.004Z,0.00
2023-10-13T03:06:15.967Z,0.00
2023-10-13T03:07:16.016Z,0.00
2023-10-13T03:08:15.954Z,0.00
2023-10-13T03:09:16.104Z,0.00
2023-10-13T03:10:15.915Z,0.00
2023-10-13T03:11:15.905Z,0.00
2023-10-13T03:12:15.878Z,0.00
2023-10-13T03:13:15.922Z,0.00
2023-10-13T03:14:15.946Z,0.00
2023-10-13T03:15:15.866Z,0.00
2023-10-13T03:16:15.911Z,0.00
2023-10-13T03:17:15.944Z,0.00
2023-10-13T03:18:15.858Z,0.00
2023-10-13T03:19:15.874Z,0.00
2023-10-13T03:20:15.821Z,0.00
2023-10-13T03:21:15.806Z,0.00
2023-10-13T03:22:16.448Z,0.00
2023-10-13T03:23:15.760Z,0.00
2023-10-13T03:24:15.781Z,0.00
2023-10-13T03:25:15.772Z,0.00
2023-10-13T03:26:15.727Z,0.00
2023-10-13T03:27:15.741Z,0.00
2023-10-13T03:28:15.702Z,0.00
2023-10-13T03:29:15.687Z,0.00
2023-10-13T03:30:15.687Z,0.00
2023-10-13T03:31:15.773Z,0.00
2023-10-13T03:32:15.709Z,0.00
2023-10-13T03:33:15.698Z,0.00
2023-10-13T03:34:15.708Z,0.00
2023-10-13T03:35:15.636Z,0.00
2023-10-13T03:36:15.604Z,0.00
2023-10-13T03:37:15.628Z,0.00
2023-10-13T03:38:15.640Z,0.00
2023-10-13T03:39:15.597Z,0.00
2023-10-13T03:40:15.625Z,0.00
2023-10-13T03:41:15.581Z,0.00
2023-10-13T03:42:15.579Z,0.00
2023-10-13T03:43:15.610Z,0.00
2023-10-13T03:44:15.542Z,0.00
2023-10-13T03:45:15.568Z,0.00
2023-10-13T03:46:15.551Z,0.00
2023-10-13T03:47:15.545Z,0.00
2023-10-13T03:48:15.673Z,0.00
2023-10-13T03:49:15.519Z,0.00
2023-10-13T03:50:15.519Z,0.00
2023-10-13T03:51:15.491Z,0.00
2023-10-13T03:52:15.492Z,0.00
2023-10-13T03:53:15.451Z,0.00
2023-10-13T03:54:15.438Z,0.00
2023-10-13T03:55:15.471Z,0.00
2023-10-13T03:56:15.457Z,0.00
2023-10-13T03:57:15.425Z,0.00
2023-10-13T03:58:15.442Z,0.00
2023-10-13T03:59:15.380Z,0.00
2023-10-13T04:00:15.399Z,0.00
2023-10-13T04:01:15.489Z,0.00
2023-10-13T04:02:15.457Z,0.00
2023-10-13T04:03:15.453Z,0.00
2023-10-13T04:04:15.369Z,0.00
2023-10-13T04:05:15.400Z,0.00
2023-10-13T04:06:15.334Z,0.00
2023-10-13T04:07:15.378Z,0.00
2023-10-13T04:08:15.325Z,0.00
2023-10-13T04:09:15.315Z,0.00
2023-10-13T04:10:15.325Z,0.00
2023-10-13T04:11:15.281Z,0.00
2023-10-13T04:12:15.289Z,1.00
2023-10-13T04:13:15.253Z,1.00
2023-10-13T04:14:15.204Z,1.00
2023-10-13T04:15:15.201Z,1.00
2023-10-13T04:16:15.280Z,1.00
2023-10-13T04:17:15.577Z,1.00
2023-10-13T04:18:15.268Z,1.00
2023-10-13T04:19:15.189Z,1.00
2023-10-13T04:20:15.140Z,1.00
2023-10-13T04:21:15.933Z,1.00
2023-10-13T04:22:15.312Z,1.00
2023-10-13T04:23:15.942Z,1.00
2023-10-13T04:24:15.081Z,1.00
2023-10-13T04:25:15.103Z,1.00
2023-10-13T04:26:15.052Z,1.00
2023-10-13T04:27:15.046Z,1.00
2023-10-13T04:28:15.934Z,1.00
2023-10-13T04:29:15.051Z,1.00
2023-10-13T04:30:15.955Z,1.00
2023-10-13T04:31:15.147Z,1.00
2023-10-13T04:32:16.442Z,1.00
2023-10-13T04:33:14.969Z,1.00
2023-10-13T04:34:15.023Z,1.00
2023-10-13T04:35:14.956Z,1.00
2023-10-13T04:36:15.165Z,1.00
2023-10-13T04:37:14.988Z,1.00
2023-10-13T04:38:14.942Z,1.00
2023-10-13T04:39:14.933Z,1.00
2023-10-13T04:40:14.968Z,1.00
2023-10-13T04:41:14.915Z,1.00
2023-10-13T04:42:14.903Z,1.00
2023-10-13T04:43:14.939Z,1.00
2023-10-13T04:44:14.877Z,1.00
2023-10-13T04:45:14.884Z,1.00
2023-10-13T04:46:14.969Z,1.00
2023-10-13T04:47:14.927Z,1.00
2023-10-13T04:48:14.955Z,1.00
2023-10-13T04:49:14.870Z,1.00
2023-10-13T04:50:14.831Z,1.00
2023-10-13T04:51:14.820Z,1.00
2023-10-13T04:52:14.855Z,1.00
2023-10-13T04:53:14.769Z,1.00
2023-10-13T04:54:15.310Z,1.00
2023-10-13T04:55:14.826Z,1.00
2023-10-13T04:56:14.731Z,1.00
2023-10-13T04:57:14.745Z,1.00
2023-10-13T04:58:14.832Z,1.00
2023-10-13T04:59:14.713Z,1.00
2023-10-13T05:00:14.704Z,1.00
2023-10-13T05:01:14.776Z,1.00
2023-10-13T05:02:14.758Z,1.00
2023-10-13T05:03:14.742Z,1.00
2023-10-13T05:04:14.859Z,1.00
2023-10-13T05:05:14.654Z,1.00
2023-10-13T05:06:14.664Z,1.00
2023-10-13T05:07:14.657Z,1.00
2023-10-13T05:08:14.668Z,1.00
2023-10-13T05:09:14.617Z,1.00
2023-10-13T05:10:14.616Z,1.00
2023-10-13T05:11:14.612Z,1.00
2023-10-13T05:12:14.619Z,1.00
2023-10-13T05:13:15.534Z,1.00
2023-10-13T05:14:15.453Z,1.00
2023-10-13T05:15:14.541Z,1.00
2023-10-13T05:16:14.664Z,1.00
2023-10-13T05:17:14.610Z,1.00
2023-10-13T05:18:14.558Z,1.00
2023-10-13T05:19:14.561Z,1.00
2023-10-13T05:20:14.532Z,1.00
2023-10-13T05:21:14.584Z,2.00
2023-10-13T05:22:14.522Z,2.00
2023-10-13T05:23:14.494Z,2.00
2023-10-13T05:24:14.479Z,2.00
2023-10-13T05:25:14.441Z,2.00
2023-10-13T05:26:14.416Z,3.00
2023-10-13T05:27:14.527Z,1.00
2023-10-13T05:28:26.395Z,1.00
2023-10-13T05:29:26.351Z,3.00
2023-10-13T05:30:14.425Z,3.00
2023-10-13T05:31:14.435Z,3.00
2023-10-13T05:32:14.574Z,3.00
2023-10-13T05:33:14.420Z,5.00
2023-10-13T05:34:14.452Z,5.00
2023-10-13T05:35:14.325Z,4.00
2023-10-13T05:36:14.354Z,4.00
2023-10-13T05:37:14.966Z,7.00
2023-10-13T05:38:14.523Z,7.00
2023-10-13T05:39:14.372Z,7.00
2023-10-13T05:40:14.333Z,7.00
2023-10-13T05:41:16.430Z,9.00
2023-10-13T05:42:14.291Z,9.00
2023-10-13T05:43:14.294Z,7.00
2023-10-13T05:44:14.973Z,10.00
2023-10-13T05:45:14.312Z,11.00
2023-10-13T05:46:14.358Z,10.00
2023-10-13T05:47:14.340Z,12.00
2023-10-13T05:48:14.343Z,17.00
2023-10-13T05:49:14.242Z,18.00
2023-10-13T05:50:14.909Z,14.00
2023-10-13T05:51:14.954Z,21.00
2023-10-13T05:52:14.208Z,28.00
2023-10-13T05:53:14.158Z,23.00
2023-10-13T05:54:14.173Z,24.00
2023-10-13T05:55:14.202Z,25.00
2023-10-13T05:56:14.200Z,25.00
2023-10-13T05:57:14.148Z,27.00
2023-10-13T05:58:14.972Z,30.00
2023-10-13T05:59:14.134Z,32.00
2023-10-13T06:00:14.126Z,33.00
2023-10-13T06:01:14.163Z,37.00
2023-10-13T06:02:15.031Z,34.00
2023-10-13T06:03:14.062Z,38.00
2023-10-13T06:04:14.254Z,39.00
2023-10-13T06:05:14.057Z,41.00
2023-10-13T06:06:14.033Z,39.00
2023-10-13T06:07:14.044Z,41.00
2023-10-13T06:08:14.036Z,45.00
2023-10-13T06:09:14.071Z,51.00
2023-10-13T06:10:14.992Z,50.00
2023-10-13T06:11:14.062Z,51.00
2023-10-13T06:12:14.018Z,51.00
2023-10-13T06:13:14.987Z,54.00
2023-10-13T06:14:13.954Z,63.00
2023-10-13T06:15:13.966Z,59.00
2023-10-13T06:16:13.983Z,63.00
2023-10-13T06:17:14.044Z,62.00
2023-10-13T06:18:15.474Z,67.00
2023-10-13T06:19:14.470Z,68.00
2023-10-13T06:20:13.865Z,70.00
2023-10-13T06:21:13.895Z,72.00
2023-10-13T06:22:13.977Z,71.00
2023-10-13T06:23:14.460Z,72.00
2023-10-13T06:24:13.825Z,73.00
2023-10-13T06:25:14.942Z,77.00
2023-10-13T06:26:15.368Z,75.00
2023-10-13T06:27:15.465Z,77.00
2023-10-13T06:28:13.839Z,78.00
2023-10-13T06:29:13.827Z,81.00
2023-10-13T06:30:13.811Z,84.00
2023-10-13T06:31:13.784Z,84.00
2023-10-13T06:32:15.310Z,84.00
2023-10-13T06:33:13.820Z,88.00
2023-10-13T06:34:13.795Z,88.00
2023-10-13T06:35:13.832Z,86.00
2023-10-13T06:36:13.822Z,90.00
2023-10-13T06:37:13.793Z,89.00
2023-10-13T06:38:13.680Z,93.00
2023-10-13T06:39:13.705Z,93.00
2023-10-13T06:40:13.718Z,95.00
2023-10-13T06:41:13.674Z,101.00
2023-10-13T06:42:13.673Z,100.00
2023-10-13T06:43:13.767Z,106.00
2023-10-13T06:44:13.640Z,111.00
2023-10-13T06:45:13.662Z,107.00
2023-10-13T06:46:14.446Z,111.00
2023-10-13T06:47:13.699Z,119.00
2023-10-13T06:48:13.614Z,124.00
2023-10-13T06:49:13.635Z,123.00
2023-10-13T06:50:13.566Z,124.00
2023-10-13T06:51:14.468Z,125.00
2023-10-13T06:52:13.620Z,118.00
2023-10-13T06:53:13.695Z,130.00
2023-10-13T06:54:13.686Z,138.00
2023-10-13T06:55:13.559Z,139.00
2023-10-13T06:56:13.520Z,143.00
2023-10-13T06:57:13.522Z,146.00
2023-10-13T06:58:13.603Z,139.00
2023-10-13T06:59:13.471Z,144.00
2023-10-13T07:00:13.471Z,162.00
2023-10-13T07:01:13.470Z,143.00
2023-10-13T07:02:27.520Z,133.00
2023-10-13T07:03:14.489Z,143.00
2023-10-13T07:04:13.561Z,145.00
2023-10-13T07:05:14.041Z,138.00
2023-10-13T07:06:13.515Z,139.00
2023-10-13T07:07:13.479Z,137.00
2023-10-13T07:08:13.411Z,138.00
2023-10-13T07:09:13.551Z,127.00
2023-10-13T07:10:15.010Z,130.00
2023-10-13T07:11:24.983Z,133.00
2023-10-13T07:12:13.384Z,127.00
2023-10-13T07:13:13.429Z,127.00
2023-10-13T07:14:13.990Z,134.00
2023-10-13T07:15:13.966Z,139.00
2023-10-13T07:16:29.118Z,142.00
2023-10-13T07:17:14.076Z,143.00
2023-10-13T07:18:14.119Z,146.00
2023-10-13T07:19:13.363Z,145.00
2023-10-13T07:20:14.126Z,146.00
2023-10-13T07:21:13.313Z,156.00
2023-10-13T07:22:14.075Z,153.00
2023-10-13T07:23:13.296Z,156.00
2023-10-13T07:24:13.974Z,159.00
2023-10-13T07:25:13.240Z,170.00
2023-10-13T07:26:13.241Z,167.00
2023-10-13T07:27:13.264Z,155.00
2023-10-13T07:28:13.993Z,178.00
2023-10-13T07:29:14.474Z,177.00
2023-10-13T07:30:14.628Z,171.00
2023-10-13T07:31:14.115Z,163.00
2023-10-13T07:32:13.276Z,147.00
2023-10-13T07:33:13.378Z,185.00
2023-10-13T07:34:14.594Z,182.00
2023-10-13T07:35:13.128Z,190.00
2023-10-13T07:36:13.139Z,191.00
2023-10-13T07:37:14.054Z,190.00
2023-10-13T07:38:13.103Z,194.00
2023-10-13T07:39:22.939Z,194.00
2023-10-13T07:40:13.152Z,201.00
2023-10-13T07:41:13.978Z,201.00
2023-10-13T07:42:13.050Z,205.00
2023-10-13T07:43:13.038Z,212.00
2023-10-13T07:44:13.032Z,198.00
2023-10-13T07:45:13.044Z,186.00
2023-10-13T07:46:13.107Z,205.00
2023-10-13T07:47:13.567Z,211.00
2023-10-13T07:48:13.042Z,209.00
2023-10-13T07:49:13.001Z,208.00
2023-10-13T07:50:12.974Z,208.00
2023-10-13T07:51:13.040Z,213.00
2023-10-13T07:52:14.068Z,214.00
2023-10-13T07:53:12.918Z,200.00
2023-10-13T07:54:12.929Z,218.00
2023-10-13T07:55:13.775Z,209.00
2023-10-13T07:56:13.138Z,212.00
2023-10-13T07:57:13.475Z,222.00
2023-10-13T07:58:12.911Z,230.00
2023-10-13T07:59:12.925Z,225.00
2023-10-13T08:00:13.548Z,181.00
2023-10-13T08:01:12.969Z,204.00
2023-10-13T08:02:13.087Z,181.00
2023-10-13T08:03:12.868Z,227.00
2023-10-13T08:04:13.600Z,232.00
2023-10-13T08:05:12.789Z,239.00
2023-10-13T08:06:12.875Z,242.00
2023-10-13T08:07:12.880Z,238.00
2023-10-13T08:08:12.737Z,233.00
2023-10-13T08:09:12.769Z,246.00
2023-10-13T08:10:12.724Z,235.00
2023-10-13T08:11:13.623Z,236.00
2023-10-13T08:12:12.729Z,252.00
2023-10-13T08:13:13.509Z,257.00
2023-10-13T08:14:18.667Z,228.00
2023-10-13T08:15:12.711Z,218.00
2023-10-13T08:16:12.802Z,138.00
2023-10-13T08:17:12.737Z,250.00
2023-10-13T08:18:12.685Z,223.00
2023-10-13T08:19:13.478Z,194.00
2023-10-13T08:20:12.628Z,168.00
2023-10-13T08:21:12.676Z,269.00
2023-10-13T08:22:13.749Z,269.00
2023-10-13T08:23:12.611Z,268.00
2023-10-13T08:24:12.627Z,270.00
2023-10-13T08:25:12.599Z,269.00
2023-10-13T08:26:13.479Z,272.00
2023-10-13T08:27:12.581Z,274.00
2023-10-13T08:28:12.558Z,281.00
2023-10-13T08:29:12.575Z,286.00
2023-10-13T08:30:13.494Z,274.00
2023-10-13T08:31:12.517Z,248.00
2023-10-13T08:32:12.645Z,212.00
2023-10-13T08:33:14.041Z,244.00
2023-10-13T08:35:12.482Z,297.00
2023-10-13T08:36:12.472Z,229.00
2023-10-13T08:37:12.982Z,267.00
2023-10-13T08:38:26.887Z,218.00
2023-10-13T08:39:12.486Z,285.00
2023-10-13T08:41:13.019Z,234.00
2023-10-13T08:42:12.494Z,285.00
2023-10-13T08:43:12.455Z,269.00
2023-10-13T08:44:12.444Z,293.00
2023-10-13T08:45:12.464Z,306.00
2023-10-13T08:46:13.682Z,307.00
2023-10-13T08:47:13.047Z,218.00
2023-10-13T08:48:12.369Z,320.00
2023-10-13T08:49:12.344Z,321.00
2023-10-13T08:50:12.363Z,312.00
2023-10-13T08:51:12.840Z,318.00
2023-10-13T08:53:12.390Z,286.00
2023-10-13T08:54:12.413Z,262.00
2023-10-13T08:55:12.279Z,331.00
2023-10-13T08:56:13.049Z,324.00
2023-10-13T08:57:12.263Z,337.00
2023-10-13T08:58:12.249Z,307.00
2023-10-13T08:59:15.498Z,189.00
2023-10-13T09:00:12.238Z,324.00
2023-10-13T09:01:12.271Z,303.00
2023-10-13T09:02:12.288Z,334.00
2023-10-13T09:03:13.589Z,306.00
2023-10-13T09:04:14.796Z,309.00
2023-10-13T09:05:13.012Z,325.00
2023-10-13T09:06:12.267Z,283.00
2023-10-13T09:07:13.504Z,292.00
2023-10-13T09:08:14.035Z,331.00
2023-10-13T09:09:12.173Z,331.00
2023-10-13T09:10:12.184Z,339.00
2023-10-13T09:11:13.048Z,367.00
2023-10-13T09:12:12.119Z,326.00
2023-10-13T09:13:12.074Z,276.00
2023-10-13T09:14:13.008Z,281.00
2023-10-13T09:15:12.088Z,285.00
2023-10-13T09:16:13.400Z,342.00
2023-10-13T09:17:12.120Z,311.00
2023-10-13T09:18:12.057Z,314.00
2023-10-13T09:19:13.706Z,384.00
2023-10-13T09:20:12.023Z,351.00
2023-10-13T09:21:11.988Z,320.00
2023-10-13T09:22:12.848Z,358.00
2023-10-13T09:23:13.014Z,224.00
2023-10-13T09:24:11.997Z,360.00
2023-10-13T09:25:12.027Z,357.00
2023-10-13T09:26:12.026Z,391.00
2023-10-13T09:27:11.925Z,401.00
2023-10-13T09:28:11.951Z,401.00
2023-10-13T09:29:11.892Z,391.00
2023-10-13T09:30:11.959Z,399.00
2023-10-13T09:31:11.912Z,403.00
2023-10-13T09:32:12.366Z,394.00
2023-10-13T09:33:11.869Z,383.00
2023-10-13T09:34:11.895Z,391.00
2023-10-13T09:35:12.500Z,384.00
2023-10-13T09:36:11.884Z,381.00
2023-10-13T09:37:11.839Z,361.00
2023-10-13T09:38:11.883Z,407.00
2023-10-13T09:39:11.824Z,362.00
2023-10-13T09:40:12.534Z,408.00
2023-10-13T09:41:11.865Z,365.00
2023-10-13T09:42:12.255Z,380.00
2023-10-13T09:43:11.810Z,316.00
2023-10-13T09:44:12.001Z,323.00
2023-10-13T09:45:11.767Z,375.00
2023-10-13T09:46:11.787Z,369.00
2023-10-13T09:47:11.836Z,366.00
2023-10-13T09:48:12.726Z,367.00
2023-10-13T09:49:11.706Z,376.00
2023-10-13T09:50:11.732Z,374.00
2023-10-13T09:51:11.762Z,357.00
2023-10-13T09:52:11.745Z,187.00
2023-10-13T09:53:11.647Z,357.00
2023-10-13T09:54:32.792Z,285.00
2023-10-13T09:55:11.688Z,329.00
2023-10-13T09:56:11.661Z,317.00
2023-10-13T09:57:11.658Z,369.00
2023-10-13T09:58:11.649Z,284.00
2023-10-13T09:59:11.609Z,356.00
2023-10-13T10:00:11.604Z,379.00
2023-10-13T10:01:11.710Z,314.00
2023-10-13T10:02:11.612Z,357.00
2023-10-13T10:03:11.643Z,390.00
2023-10-13T10:04:11.580Z,311.00
2023-10-13T10:05:11.622Z,379.00
2023-10-13T10:06:11.547Z,367.00
2023-10-13T10:07:11.583Z,287.00
2023-10-13T10:08:11.540Z,436.00
2023-10-13T10:09:11.546Z,382.00
2023-10-13T10:10:12.563Z,333.00
2023-10-13T10:11:11.484Z,428.00
2023-10-13T10:12:11.460Z,436.00
2023-10-13T10:13:11.504Z,442.00
2023-10-13T10:14:11.448Z,437.00
2023-10-13T10:15:11.452Z,440.00
2023-10-13T10:16:11.587Z,446.00
2023-10-13T10:17:11.501Z,442.00
2023-10-13T10:18:11.417Z,444.00
2023-10-13T10:19:11.411Z,439.00
2023-10-13T10:20:11.413Z,445.00
2023-10-13T10:21:11.557Z,446.00
2023-10-13T10:22:11.422Z,457.00
2023-10-13T10:23:11.390Z,455.00
2023-10-13T10:24:11.364Z,452.00
2023-10-13T10:25:11.338Z,454.00
2023-10-13T10:26:11.314Z,450.00
2023-10-13T10:27:11.363Z,481.00
2023-10-13T10:28:11.342Z,425.00
2023-10-13T10:29:11.299Z,396.00
2023-10-13T10:30:11.302Z,490.00
2023-10-13T10:31:11.282Z,448.00
2023-10-13T10:32:11.456Z,451.00
2023-10-13T10:33:12.091Z,459.00
2023-10-13T10:34:11.278Z,470.00
2023-10-13T10:35:11.255Z,475.00
2023-10-13T10:36:12.047Z,354.00
2023-10-13T10:37:12.000Z,420.00
2023-10-13T10:38:11.230Z,265.00
2023-10-13T10:39:11.203Z,375.00
2023-10-13T10:40:11.185Z,298.00
2023-10-13T10:41:11.216Z,296.00
2023-10-13T10:42:11.209Z,315.00
2023-10-13T10:43:29.643Z,225.00
2023-10-13T10:44:11.309Z,487.00
2023-10-13T10:45:11.202Z,426.00
2023-10-13T10:46:11.216Z,487.00
2023-10-13T10:47:11.244Z,558.00
2023-10-13T10:48:11.195Z,625.00
2023-10-13T10:49:11.160Z,472.00
2023-10-13T10:50:11.153Z,536.00
2023-10-13T10:51:11.132Z,561.00
2023-10-13T10:52:11.107Z,535.00
2023-10-13T10:53:11.173Z,372.00
2023-10-13T10:54:11.062Z,516.00
2023-10-13T10:55:11.054Z,451.00
2023-10-13T10:56:11.118Z,385.00
2023-10-13T10:57:11.017Z,344.00
2023-10-13T10:58:11.006Z,288.00
2023-10-13T10:59:11.050Z,317.00
2023-10-13T11:00:11.053Z,165.00
2023-10-13T11:01:11.032Z,249.00
2023-10-13T11:02:10.962Z,526.00
2023-10-13T11:03:11.008Z,616.00
2023-10-13T11:04:10.969Z,497.00
2023-10-13T11:05:11.248Z,353.00
2023-10-13T11:06:12.513Z,211.00
2023-10-13T11:07:10.931Z,573.00
2023-10-13T11:08:10.980Z,555.00
2023-10-13T11:09:11.847Z,502.00
2023-10-13T11:10:10.949Z,598.00
2023-10-13T11:11:10.944Z,618.00
2023-10-13T11:12:10.867Z,605.00
2023-10-13T11:13:10.895Z,628.00
2023-10-13T11:14:10.881Z,604.00
2023-10-13T11:15:11.574Z,531.00
2023-10-13T11:16:10.824Z,370.00
2023-10-13T11:17:10.893Z,266.00
2023-10-13T11:18:10.907Z,405.00
2023-10-13T11:19:10.808Z,314.00
2023-10-13T11:20:10.770Z,465.00
2023-10-13T11:21:11.512Z,454.00
2023-10-13T11:22:11.582Z,387.00
2023-10-13T11:23:10.770Z,323.00
2023-10-13T11:24:10.765Z,213.00
2023-10-13T11:25:10.838Z,545.00
2023-10-13T11:26:10.845Z,520.00
2023-10-13T11:27:10.781Z,541.00
2023-10-13T11:28:10.716Z,525.00
2023-10-13T11:29:10.676Z,561.00
2023-10-13T11:30:10.669Z,623.00
2023-10-13T11:31:10.665Z,654.00
2023-10-13T11:32:10.735Z,670.00
2023-10-13T11:33:10.777Z,582.00
2023-10-13T11:34:10.620Z,641.00
2023-10-13T11:35:10.602Z,633.00
2023-10-13T11:36:10.658Z,470.00
2023-10-13T11:37:10.642Z,635.00
2023-10-13T11:38:10.633Z,624.00
2023-10-13T11:39:12.525Z,491.00
2023-10-13T11:40:10.569Z,516.00
2023-10-13T11:41:11.437Z,505.00
2023-10-13T11:42:10.596Z,377.00
2023-10-13T11:43:11.542Z,432.00
2023-10-13T11:44:10.541Z,379.00
2023-10-13T11:45:10.587Z,460.00
2023-10-13T11:46:10.629Z,502.00
2023-10-13T11:47:10.596Z,494.00
2023-10-13T11:48:10.533Z,683.00
2023-10-13T11:49:10.467Z,631.00
2023-10-13T11:50:10.537Z,629.00
2023-10-13T11:51:10.504Z,549.00
2023-10-13T11:52:10.432Z,535.00
2023-10-13T11:53:10.440Z,664.00
2023-10-13T11:54:10.447Z,739.00
2023-10-13T11:55:10.437Z,682.00
2023-10-13T11:56:10.417Z,563.00
2023-10-13T11:57:11.018Z,389.00
2023-10-13T11:58:10.378Z,677.00
2023-10-13T11:59:10.359Z,640.00
2023-10-13T12:00:10.375Z,646.00
2023-10-13T12:01:11.042Z,718.00
2023-10-13T12:02:11.185Z,741.00
2023-10-13T12:03:10.444Z,711.00
2023-10-13T12:04:10.547Z,691.00
2023-10-13T12:05:10.369Z,700.00
2023-10-13T12:06:10.284Z,696.00
2023-10-13T12:07:10.286Z,695.00
2023-10-13T12:08:10.295Z,687.00
2023-10-13T12:09:10.324Z,690.00
2023-10-13T12:10:10.233Z,527.00
2023-10-13T12:11:10.237Z,414.00
2023-10-13T12:12:11.488Z,520.00
2023-10-13T12:13:10.254Z,357.00
2023-10-13T12:14:10.239Z,522.00
2023-10-13T12:15:10.308Z,634.00
2023-10-13T12:16:10.206Z,664.00
2023-10-13T12:17:10.232Z,667.00
2023-10-13T12:18:10.210Z,648.00
2023-10-13T12:19:11.024Z,650.00
2023-10-13T12:20:10.306Z,645.00
2023-10-13T12:21:10.134Z,613.00
2023-10-13T12:22:10.151Z,351.00
2023-10-13T12:23:10.114Z,445.00
2023-10-13T12:24:10.113Z,669.00
2023-10-13T12:25:10.103Z,617.00
2023-10-13T12:26:11.036Z,539.00
2023-10-13T12:27:10.088Z,90.00
2023-10-13T12:28:10.091Z,639.00
2023-10-13T12:29:10.095Z,611.00
2023-10-13T12:30:10.052Z,597.00
2023-10-13T12:31:10.127Z,587.00
2023-10-13T12:32:12.098Z,591.00
2023-10-13T12:33:10.291Z,583.00
2023-10-13T12:34:10.000Z,579.00
2023-10-13T12:35:10.059Z,569.00
2023-10-13T12:36:10.046Z,562.00
2023-10-13T12:37:09.962Z,553.00
2023-10-13T12:38:10.056Z,547.00
2023-10-13T12:39:09.961Z,541.00
2023-10-13T12:40:09.969Z,535.00
2023-10-13T12:41:21.340Z,528.00
2023-10-13T12:42:10.543Z,520.00
2023-10-13T12:43:09.938Z,516.00
2023-10-13T12:44:09.883Z,507.00
2023-10-13T12:45:09.952Z,499.00
2023-10-13T12:46:09.920Z,493.00
2023-10-13T12:47:10.125Z,486.00
2023-10-13T12:48:10.690Z,484.00
2023-10-13T12:49:10.564Z,480.00
2023-10-13T12:50:09.977Z,476.00
2023-10-13T12:51:09.859Z,472.00
2023-10-13T12:52:09.848Z,463.00
2023-10-13T12:53:10.436Z,454.00
2023-10-13T12:54:09.861Z,465.00